createdAt,value
2018-08-09T00:01:27.106Z,60.20
2018-08-09T00:03:54.754Z,60.60
2018-08-09T00:06:22.341Z,60.70
2018-08-09T00:08:50.066Z,60.60
2018-08-09T00:11:17.671Z,60.80
2018-08-09T00:13:45.292Z,61.20
2018-08-09T00:16:12.856Z,61.70
2018-08-09T00:18:40.489Z,62.00
2018-08-09T00:21:08.160Z,61.70
2018-08-09T00:23:36.049Z,61.80
2018-08-09T00:26:03.668Z,61.80
2018-08-09T00:28:31.324Z,62.00
2018-08-09T00:30:58.960Z,61.90
2018-08-09T00:33:26.576Z,61.40
2018-08-09T00:35:54.185Z,62.00
2018-08-09T00:38:21.788Z,61.20
2018-08-09T00:40:49.704Z,61.20
2018-08-09T00:43:17.827Z,61.30
2018-08-09T00:45:45.420Z,61.30
2018-08-09T00:48:13.144Z,62.10
2018-08-09T00:50:40.833Z,62.30
2018-08-09T00:53:08.491Z,62.10
2018-08-09T00:55:36.099Z,62.30
2018-08-09T00:58:03.707Z,62.20
2018-08-09T01:00:32.157Z,62.20
2018-08-09T01:02:59.806Z,62.30
2018-08-09T01:05:27.470Z,62.60
2018-08-09T01:07:55.260Z,62.80
2018-08-09T01:10:22.877Z,62.90
2018-08-09T01:12:50.494Z,63.00
2018-08-09T01:15:18.215Z,63.20
2018-08-09T01:17:46.114Z,63.10
2018-08-09T01:20:13.703Z,63.20
2018-08-09T01:22:41.321Z,63.30
2018-08-09T01:25:09.070Z,63.10
2018-08-09T01:27:36.683Z,63.00
2018-08-09T01:30:04.428Z,63.30
2018-08-09T01:32:32.079Z,63.40
2018-08-09T01:34:59.675Z,63.00
2018-08-09T01:37:27.251Z,63.20
2018-08-09T01:39:54.854Z,63.00
2018-08-09T01:42:33.766Z,62.90
2018-08-09T01:45:01.402Z,63.20
2018-08-09T01:47:29.300Z,63.20
2018-08-09T01:49:56.918Z,64.00
2018-08-09T01:52:24.539Z,63.50
2018-08-09T01:54:52.143Z,63.50
2018-08-09T01:57:19.726Z,63.60
2018-08-09T01:59:47.730Z,63.00
2018-08-09T02:02:15.294Z,63.20
2018-08-09T02:04:43.015Z,63.10
2018-08-09T02:07:10.556Z,63.50
2018-08-09T02:09:38.113Z,63.60
2018-08-09T02:12:05.829Z,63.20
2018-08-09T02:14:33.423Z,62.60
2018-08-09T02:17:01.336Z,62.90
2018-08-09T02:19:29.112Z,63.40
2018-08-09T02:21:56.728Z,63.20
2018-08-09T02:24:24.368Z,62.60
2018-08-09T02:26:52.039Z,63.90
2018-08-09T02:29:19.593Z,64.20
2018-08-09T02:31:47.181Z,63.80
2018-08-09T02:34:14.844Z,63.40
2018-08-09T02:36:42.623Z,63.40
2018-08-09T02:39:10.884Z,63.30
2018-08-09T02:41:38.632Z,63.20
2018-08-09T02:44:06.413Z,63.20
2018-08-09T02:46:34.035Z,62.90
2018-08-09T02:49:01.774Z,62.50
2018-08-09T02:51:29.308Z,62.40
2018-08-09T02:53:56.915Z,62.50
2018-08-09T02:56:24.695Z,62.20
2018-08-09T02:58:52.201Z,63.10
2018-08-09T03:01:19.780Z,62.80
2018-08-09T03:03:47.311Z,62.80
2018-08-09T03:06:14.887Z,63.70
2018-08-09T03:08:42.426Z,63.90
2018-08-09T03:11:09.995Z,62.80
2018-08-09T03:13:37.980Z,63.00
2018-08-09T03:16:05.601Z,63.00
2018-08-09T03:18:33.425Z,63.50
2018-08-09T03:21:01.457Z,63.30
2018-08-09T03:23:35.690Z,63.60
2018-08-09T03:26:03.452Z,63.80
2018-08-09T03:28:31.349Z,63.70
2018-08-09T03:30:58.967Z,63.80
2018-08-09T03:33:26.536Z,63.60
2018-08-09T03:35:54.126Z,63.00
2018-08-09T03:38:21.691Z,63.50
2018-08-09T03:40:49.291Z,63.80
2018-08-09T03:43:16.824Z,64.10
2018-08-09T03:45:44.398Z,64.30
2018-08-09T03:48:12.169Z,63.60
2018-08-09T03:50:39.775Z,64.20
2018-08-09T03:53:07.555Z,64.00
2018-08-09T03:55:41.735Z,63.30
2018-08-09T03:58:09.293Z,64.00
2018-08-09T04:00:36.853Z,64.80
2018-08-09T04:03:04.632Z,64.00
2018-08-09T04:05:32.429Z,64.20
2018-08-09T04:08:00.267Z,63.60
2018-08-09T04:10:28.269Z,63.40
2018-08-09T04:12:55.851Z,63.70
2018-08-09T04:15:23.425Z,64.80
2018-08-09T04:17:50.964Z,64.70
2018-08-09T04:20:18.562Z,64.00
2018-08-09T04:22:46.140Z,64.50
2018-08-09T04:25:13.950Z,65.60
2018-08-09T04:27:41.547Z,65.20
2018-08-09T04:30:09.207Z,65.90
2018-08-09T04:32:36.853Z,65.50
2018-08-09T04:35:04.456Z,65.50
2018-08-09T04:37:32.048Z,65.80
2018-08-09T04:39:59.596Z,66.10
2018-08-09T04:42:27.212Z,66.40
2018-08-09T04:44:54.764Z,66.30
2018-08-09T04:47:22.379Z,66.40
2018-08-09T04:49:50.000Z,66.40
2018-08-09T04:52:17.655Z,66.30
2018-08-09T04:54:45.211Z,66.40
2018-08-09T04:57:12.787Z,66.60
2018-08-09T04:59:40.347Z,67.20
2018-08-09T05:02:07.934Z,67.10
2018-08-09T05:04:35.546Z,67.30
2018-08-09T05:07:03.296Z,67.20
2018-08-09T05:09:30.844Z,67.40
2018-08-09T05:11:58.385Z,66.80
2018-08-09T05:14:25.964Z,67.10
2018-08-09T05:16:53.544Z,67.20
2018-08-09T05:19:27.907Z,66.60
2018-08-09T05:21:55.461Z,66.90
2018-08-09T05:24:23.186Z,67.60
2018-08-09T05:26:50.752Z,67.30
2018-08-09T05:29:18.312Z,67.80
2018-08-09T05:31:45.937Z,67.60
2018-08-09T05:34:13.527Z,67.90
2018-08-09T05:36:41.126Z,68.30
2018-08-09T05:39:10.171Z,69.00
2018-08-09T05:41:38.003Z,69.00
2018-08-09T05:44:05.564Z,68.90
2018-08-09T05:46:33.132Z,68.80
2018-08-09T05:49:00.743Z,69.60
2018-08-09T05:51:28.339Z,70.00
2018-08-09T05:53:56.100Z,69.70
2018-08-09T05:56:23.760Z,69.30
2018-08-09T05:58:51.300Z,69.50
2018-08-09T06:01:18.891Z,69.50
2018-08-09T06:03:46.455Z,69.60
2018-08-09T06:06:14.063Z,69.80
2018-08-09T06:08:41.633Z,69.70
2018-08-09T06:11:09.195Z,69.40
2018-08-09T06:13:36.829Z,69.00
2018-08-09T06:16:04.773Z,69.40
2018-08-09T06:18:32.343Z,68.90
2018-08-09T06:20:59.920Z,69.00
2018-08-09T06:23:27.454Z,68.60
2018-08-09T06:25:55.120Z,68.30
2018-08-09T06:28:22.652Z,68.00
2018-08-09T06:30:50.210Z,68.20
2018-08-09T06:33:17.804Z,68.10
2018-08-09T06:35:46.233Z,68.00
2018-08-09T06:38:13.996Z,67.40
2018-08-09T06:40:41.608Z,67.20
2018-08-09T06:43:09.179Z,66.50
2018-08-09T06:45:37.084Z,66.30
2018-08-09T06:48:04.789Z,65.80
2018-08-09T06:50:32.368Z,65.30
2018-08-09T06:52:59.927Z,65.20
2018-08-09T06:55:27.604Z,64.70
2018-08-09T06:57:55.230Z,64.30
2018-08-09T07:00:22.803Z,64.10
2018-08-09T07:02:50.607Z,64.30
2018-08-09T07:05:18.137Z,63.90
2018-08-09T07:07:45.760Z,63.70
2018-08-09T07:10:13.485Z,63.60
2018-08-09T07:12:41.058Z,63.70
2018-08-09T07:15:10.831Z,62.80
2018-08-09T07:17:38.759Z,62.10
2018-08-09T07:20:07.301Z,62.10
2018-08-09T07:22:35.032Z,62.00
2018-08-09T07:25:02.763Z,61.30
2018-08-09T07:27:30.468Z,61.40
2018-08-09T07:29:58.032Z,61.20
2018-08-09T07:32:25.755Z,60.90
2018-08-09T07:34:53.322Z,61.60
2018-08-09T07:37:20.896Z,61.40
2018-08-09T07:39:48.541Z,60.80
2018-08-09T07:42:16.053Z,60.20
2018-08-09T07:44:43.718Z,60.30
2018-08-09T07:47:11.272Z,60.00
2018-08-09T07:49:39.062Z,59.50
2018-08-09T07:52:06.778Z,60.00
2018-08-09T07:54:34.317Z,59.70
2018-08-09T07:57:02.098Z,60.00
2018-08-09T07:59:29.607Z,58.50
2018-08-09T08:01:57.317Z,59.00
2018-08-09T08:04:24.900Z,58.90
2018-08-09T08:06:52.812Z,59.30
2018-08-09T08:09:20.695Z,59.20
2018-08-09T08:11:48.318Z,57.60
2018-08-09T08:14:15.899Z,57.90
2018-08-09T08:16:43.555Z,57.60
2018-08-09T08:19:11.179Z,56.70
2018-08-09T08:21:38.745Z,56.20
2018-08-09T08:24:06.324Z,56.30
2018-08-09T08:26:33.973Z,54.80
2018-08-09T08:29:01.560Z,54.40
2018-08-09T08:31:29.396Z,53.70
2018-08-09T08:33:57.067Z,54.30
2018-08-09T08:36:24.681Z,53.90
2018-08-09T08:38:52.262Z,53.80
2018-08-09T08:41:19.946Z,53.40
2018-08-09T08:43:47.500Z,53.40
2018-08-09T08:46:15.321Z,51.90
2018-08-09T08:48:42.932Z,52.10
2018-08-09T08:51:10.538Z,51.80
2018-08-09T08:53:38.971Z,51.30
2018-08-09T08:56:06.580Z,51.50
2018-08-09T08:58:34.168Z,50.60
2018-08-09T09:01:01.852Z,51.00
2018-08-09T09:03:29.426Z,50.60
2018-08-09T09:05:57.194Z,48.90
2018-08-09T09:08:24.803Z,48.80
2018-08-09T09:10:54.199Z,48.10
2018-08-09T09:13:22.132Z,47.50
2018-08-09T09:15:49.722Z,47.30
2018-08-09T09:18:17.348Z,47.40
2018-08-09T09:20:44.943Z,46.80
2018-08-09T09:23:12.569Z,46.10
2018-08-09T09:25:40.224Z,46.50
2018-08-09T09:28:07.791Z,45.20
2018-08-09T09:30:35.415Z,45.40
2018-08-09T09:33:03.205Z,45.50
2018-08-09T09:35:30.799Z,44.30
2018-08-09T09:37:58.423Z,44.20
2018-08-09T09:40:25.955Z,43.70
2018-08-09T09:42:53.556Z,43.80
2018-08-09T09:45:21.169Z,44.10
2018-08-09T09:47:48.739Z,43.90
2018-08-09T09:50:16.345Z,43.30
2018-08-09T09:52:43.930Z,43.40
2018-08-09T09:55:11.816Z,42.60
2018-08-09T09:57:39.392Z,42.20
2018-08-09T10:00:13.460Z,41.90
2018-08-09T10:02:41.053Z,41.00
2018-08-09T10:05:08.743Z,41.40
2018-08-09T10:07:36.615Z,40.00
2018-08-09T10:10:04.383Z,40.50
2018-08-09T10:12:31.959Z,40.80
2018-08-09T10:14:59.744Z,39.10
2018-08-09T10:17:27.320Z,37.90
2018-08-09T10:19:54.883Z,38.40
2018-08-09T10:22:22.555Z,38.70
2018-08-09T10:24:50.118Z,37.40
2018-08-09T10:27:18.040Z,37.90
2018-08-09T10:29:45.888Z,37.50
2018-08-09T10:32:13.728Z,36.90
2018-08-09T10:34:41.312Z,36.90
2018-08-09T10:37:08.888Z,36.80
2018-08-09T10:39:36.760Z,36.50
2018-08-09T10:42:06.216Z,35.50
2018-08-09T10:44:33.783Z,34.70
2018-08-09T10:47:01.387Z,35.20
2018-08-09T10:49:28.974Z,35.20
2018-08-09T10:51:56.610Z,34.70
2018-08-09T10:54:24.155Z,33.50
2018-08-09T10:56:51.776Z,32.50
2018-08-09T10:59:20.334Z,33.20
2018-08-09T11:01:47.936Z,33.90
2018-08-09T11:04:15.543Z,33.50
2018-08-09T11:06:43.096Z,33.10
2018-08-09T11:09:11.743Z,32.80
2018-08-09T11:11:39.340Z,32.00
2018-08-09T11:14:06.945Z,31.90
2018-08-09T11:16:34.552Z,33.00
2018-08-09T11:19:02.202Z,32.00
2018-08-09T11:21:30.155Z,32.60
2018-08-09T11:23:57.732Z,31.70
2018-08-09T11:26:25.453Z,30.60
2018-08-09T11:28:53.013Z,30.00
2018-08-09T11:31:20.669Z,30.00
2018-08-09T11:33:48.380Z,30.10
2018-08-09T11:36:15.940Z,30.30
2018-08-09T11:38:43.523Z,30.60
2018-08-09T11:41:11.088Z,30.30
2018-08-09T11:43:38.684Z,30.00
2018-08-09T11:46:06.336Z,30.80
2018-08-09T11:48:33.896Z,30.90
2018-08-09T11:51:01.544Z,30.50
2018-08-09T11:53:29.197Z,29.90
2018-08-09T11:55:56.795Z,29.80
2018-08-09T11:58:24.412Z,29.80
2018-08-09T12:00:52.038Z,30.40
2018-08-09T12:03:19.818Z,29.60
2018-08-09T12:05:47.665Z,29.50
2018-08-09T12:08:15.219Z,29.90
2018-08-09T12:10:42.848Z,30.40
2018-08-09T12:13:10.472Z,29.00
2018-08-09T12:15:38.311Z,29.00
2018-08-09T12:18:06.137Z,28.40
2018-08-09T12:20:33.697Z,28.60
2018-08-09T12:23:01.411Z,28.80
2018-08-09T12:25:29.011Z,27.80
2018-08-09T12:27:56.847Z,28.40
2018-08-09T12:30:24.556Z,28.60
2018-08-09T12:32:52.197Z,28.40
2018-08-09T12:35:19.900Z,29.40
2018-08-09T12:37:47.472Z,29.70
2018-08-09T12:40:15.176Z,30.00
2018-08-09T12:42:42.767Z,28.70
2018-08-09T12:45:11.657Z,29.30
2018-08-09T12:47:39.790Z,30.00
2018-08-09T12:50:09.952Z,29.30
2018-08-09T12:52:37.888Z,28.20
2018-08-09T12:55:05.967Z,28.80
2018-08-09T12:57:33.608Z,28.50
2018-08-09T13:00:01.431Z,28.30
2018-08-09T13:02:29.375Z,28.30
2018-08-09T13:04:56.976Z,29.20
2018-08-09T13:09:59.153Z,28.90
2018-08-09T13:12:26.816Z,29.00
2018-08-09T13:14:54.388Z,29.30
2018-08-09T13:17:22.459Z,29.00
2018-08-09T13:19:50.065Z,29.20
2018-08-09T13:22:17.679Z,29.60
2018-08-09T13:24:45.324Z,29.10
2018-08-09T13:27:13.128Z,29.30
2018-08-09T13:29:40.776Z,31.10
2018-08-09T13:32:08.595Z,33.90
2018-08-09T13:34:36.243Z,36.30
2018-08-09T13:37:03.987Z,41.50
2018-08-09T13:39:31.633Z,43.80
2018-08-09T13:41:59.309Z,46.60
2018-08-09T13:44:27.210Z,47.30
2018-08-09T13:46:55.031Z,48.70
2018-08-09T13:49:22.682Z,49.30
2018-08-09T13:51:51.472Z,49.80
2018-08-09T13:54:19.153Z,49.90
2018-08-09T13:56:46.843Z,49.30
2018-08-09T13:59:14.420Z,49.30
2018-08-09T14:01:42.401Z,49.30
2018-08-09T14:04:10.467Z,48.90
2018-08-09T14:06:38.061Z,48.50
2018-08-09T14:09:09.193Z,48.80
2018-08-09T14:11:37.342Z,48.20
2018-08-09T14:14:05.180Z,47.70
2018-08-09T14:16:33.084Z,48.10
2018-08-09T14:19:00.674Z,47.50
2018-08-09T14:21:28.422Z,47.80
2018-08-09T14:23:56.099Z,47.70
2018-08-09T14:26:23.922Z,47.50
2018-08-09T14:28:51.564Z,47.70
2018-08-09T14:31:19.328Z,47.20
2018-08-09T14:33:47.041Z,46.30
2018-08-09T14:36:14.936Z,46.90
2018-08-09T14:38:42.657Z,46.90
2018-08-09T14:41:10.500Z,47.20
2018-08-09T14:43:38.323Z,46.60
2018-08-09T14:46:05.969Z,46.90
2018-08-09T14:48:33.615Z,46.50
2018-08-09T14:51:01.296Z,46.60
2018-08-09T14:53:29.016Z,46.20
2018-08-09T14:55:56.984Z,46.00
2018-08-09T14:58:24.816Z,45.70
2018-08-09T15:00:52.384Z,46.00
2018-08-09T15:03:20.201Z,45.30
2018-08-09T15:05:47.903Z,45.30
2018-08-09T15:08:15.582Z,45.10
2018-08-09T15:10:43.187Z,44.80
2018-08-09T15:13:10.968Z,44.40
2018-08-09T15:15:38.630Z,43.40
2018-08-09T15:18:06.243Z,43.40
2018-08-09T15:20:36.352Z,43.00
2018-08-09T15:23:04.105Z,42.00
2018-08-09T15:25:31.749Z,41.80
2018-08-09T15:27:59.691Z,42.20
2018-08-09T15:30:27.535Z,42.10
2018-08-09T15:32:55.155Z,41.80
2018-08-09T15:35:22.770Z,41.40
2018-08-09T15:37:50.665Z,41.30
2018-08-09T15:40:18.243Z,41.30
2018-08-09T15:42:45.892Z,41.20
2018-08-09T15:45:14.333Z,41.40
2018-08-09T15:47:42.290Z,41.50
2018-08-09T15:50:19.327Z,41.40
2018-08-09T15:52:46.992Z,40.70
2018-08-09T15:55:15.595Z,40.40
2018-08-09T15:57:43.317Z,40.90
2018-08-09T16:00:13.741Z,40.40
2018-08-09T16:02:41.429Z,40.60
2018-08-09T16:05:09.406Z,40.00
2018-08-09T16:07:37.219Z,40.10
2018-08-09T16:10:07.439Z,39.80
2018-08-09T16:12:35.049Z,40.00
2018-08-09T16:15:02.776Z,40.40
2018-08-09T16:17:30.483Z,40.20
2018-08-09T16:19:58.387Z,40.10
2018-08-09T16:22:26.982Z,39.90
2018-08-09T16:24:54.585Z,40.50
2018-08-09T16:27:22.335Z,41.50
2018-08-09T16:29:49.959Z,40.40
2018-08-09T16:32:17.585Z,40.00
2018-08-09T16:34:45.189Z,40.30
2018-08-09T16:37:12.752Z,39.80
2018-08-09T16:39:40.354Z,39.50
2018-08-09T16:42:08.009Z,39.30
2018-08-09T16:44:35.649Z,39.50
2018-08-09T16:47:03.409Z,39.10
2018-08-09T16:49:31.024Z,40.00
2018-08-09T16:51:58.753Z,39.50
2018-08-09T16:54:26.404Z,39.10
2018-08-09T16:56:54.536Z,38.80
2018-08-09T16:59:22.127Z,38.80
2018-08-09T17:01:50.163Z,39.20
2018-08-09T17:04:17.821Z,39.00
2018-08-09T17:06:45.524Z,39.10
2018-08-09T17:09:19.950Z,39.10
2018-08-09T17:11:47.606Z,39.70
2018-08-09T17:14:15.766Z,40.40
2018-08-09T17:16:44.004Z,41.80
2018-08-09T17:19:11.664Z,42.10
2018-08-09T17:21:39.372Z,43.50
2018-08-09T17:24:08.278Z,41.70
2018-08-09T17:26:35.983Z,42.50
2018-08-09T17:29:04.361Z,42.80
2018-08-09T17:31:32.375Z,43.60
2018-08-09T17:33:59.995Z,43.60
2018-08-09T17:36:27.627Z,45.00
2018-08-09T17:38:55.264Z,47.30
2018-08-09T17:41:23.025Z,47.10
2018-08-09T17:43:50.613Z,49.00
2018-08-09T17:46:18.327Z,50.60
2018-08-09T17:48:46.035Z,50.20
2018-08-09T17:51:13.672Z,50.20
2018-08-09T17:53:43.837Z,49.90
2018-08-09T17:56:11.528Z,50.60
2018-08-09T17:58:39.216Z,51.80
2018-08-09T18:01:07.168Z,50.90
2018-08-09T18:03:34.933Z,50.60
2018-08-09T18:06:02.709Z,50.60
2018-08-09T18:08:30.399Z,51.90
2018-08-09T18:11:02.128Z,51.40
2018-08-09T18:13:30.042Z,51.90
2018-08-09T18:15:57.616Z,52.30
2018-08-09T18:18:25.213Z,52.70
2018-08-09T18:20:52.888Z,52.80
2018-08-09T18:23:20.520Z,52.80
2018-08-09T18:25:48.210Z,53.50
2018-08-09T18:28:16.077Z,53.20
2018-08-09T18:30:43.803Z,53.40
2018-08-09T18:33:11.659Z,53.30
2018-08-09T18:35:39.729Z,53.20
2018-08-09T18:38:07.840Z,53.60
2018-08-09T18:40:35.593Z,54.40
2018-08-09T18:43:03.506Z,53.60
2018-08-09T18:45:31.144Z,53.90
2018-08-09T18:47:58.771Z,54.50
2018-08-09T18:50:27.818Z,54.20
2018-08-09T18:52:55.613Z,54.30
2018-08-09T18:55:23.381Z,54.60
2018-08-09T18:57:51.556Z,54.30
2018-08-09T19:00:21.630Z,54.90
2018-08-09T19:02:49.745Z,54.60
2018-08-09T19:05:17.412Z,54.80
2018-08-09T19:07:45.262Z,55.00
2018-08-09T19:10:21.796Z,54.60
2018-08-09T19:12:49.708Z,54.50
2018-08-09T19:15:17.516Z,55.10
2018-08-09T19:17:45.276Z,55.80
2018-08-09T19:20:16.380Z,56.50
2018-08-09T19:22:44.617Z,57.00
2018-08-09T19:25:12.535Z,55.90
2018-08-09T19:27:40.185Z,55.90
2018-08-09T19:30:08.601Z,56.00
2018-08-09T19:32:36.507Z,55.80
2018-08-09T19:35:05.859Z,55.10
2018-08-09T19:37:33.703Z,55.20
2018-08-09T19:40:01.570Z,56.00
2018-08-09T19:42:29.227Z,55.50
2018-08-09T19:44:56.914Z,55.30
2018-08-09T19:47:24.761Z,55.50
2018-08-09T19:49:52.406Z,55.60
2018-08-09T19:52:20.225Z,55.00
2018-08-09T19:54:48.203Z,55.70
2018-08-09T19:57:15.869Z,55.10
2018-08-09T19:59:43.520Z,55.10
2018-08-09T20:02:11.163Z,55.10
2018-08-09T20:04:38.856Z,55.00
2018-08-09T20:07:06.996Z,55.10
2018-08-09T20:09:34.729Z,55.10
2018-08-09T20:12:02.691Z,55.00
2018-08-09T20:14:30.308Z,55.00
2018-08-09T20:16:57.919Z,54.90
2018-08-09T20:19:25.542Z,54.70
2018-08-09T20:21:53.217Z,55.10
2018-08-09T20:24:20.987Z,55.00
2018-08-09T20:26:51.738Z,55.10
2018-08-09T20:29:19.393Z,54.80
2018-08-09T20:31:47.111Z,55.00
2018-08-09T20:34:14.732Z,54.70
2018-08-09T20:36:42.388Z,55.50
2018-08-09T20:39:12.291Z,57.10
2018-08-09T20:41:40.356Z,57.40
2018-08-09T20:44:08.065Z,56.10
2018-08-09T20:46:36.550Z,56.50
2018-08-09T20:49:04.188Z,56.60
2018-08-09T20:51:31.900Z,56.80
2018-08-09T20:53:59.759Z,57.30
2018-08-09T20:56:27.706Z,56.90
2018-08-09T20:58:55.888Z,57.00
2018-08-09T21:01:23.924Z,56.60
2018-08-09T21:03:51.956Z,57.30
2018-08-09T21:06:19.620Z,57.00
2018-08-09T21:08:47.404Z,57.10
2018-08-09T21:11:15.284Z,56.60
2018-08-09T21:13:42.968Z,56.60
2018-08-09T21:16:10.775Z,56.20
2018-08-09T21:18:38.719Z,57.70
2018-08-09T21:21:12.993Z,57.80
2018-08-09T21:23:40.679Z,58.90
2018-08-09T21:26:08.529Z,57.40
2018-08-09T21:28:36.234Z,57.30
2018-08-09T21:31:03.888Z,57.40
2018-08-09T21:33:31.541Z,57.50
2018-08-09T21:35:59.222Z,57.70
2018-08-09T21:38:26.854Z,57.80
2018-08-09T21:40:54.652Z,57.80
2018-08-09T21:43:22.309Z,57.90
2018-08-09T21:45:50.366Z,58.10
2018-08-09T21:48:18.055Z,57.70
2018-08-09T21:50:45.736Z,58.20
2018-08-09T21:53:13.381Z,57.90
2018-08-09T21:55:41.165Z,58.10
2018-08-09T21:58:08.794Z,58.90
2018-08-09T22:00:53.789Z,59.00
2018-08-09T22:03:23.239Z,59.00
2018-08-09T22:05:56.549Z,59.20
2018-08-09T22:08:29.921Z,58.10
2018-08-09T22:11:03.443Z,58.40
2018-08-09T22:13:36.790Z,58.70
2018-08-09T22:16:10.685Z,60.70
2018-08-09T22:18:44.180Z,59.50
2018-08-09T22:21:19.000Z,58.90
2018-08-09T22:23:47.079Z,58.90
2018-08-09T22:26:14.732Z,59.00
2018-08-09T22:28:42.919Z,59.00
2018-08-09T22:31:10.608Z,59.00
2018-08-09T22:33:38.298Z,58.90
2018-08-09T22:36:06.249Z,59.10
2018-08-09T22:38:33.889Z,59.10
2018-08-09T22:41:02.559Z,59.00
2018-08-09T22:43:30.490Z,59.00
2018-08-09T22:45:58.205Z,58.90
2018-08-09T22:48:26.476Z,59.40
2018-08-09T22:50:54.295Z,59.20
2018-08-09T22:53:22.013Z,58.90
2018-08-09T22:55:49.888Z,58.60
2018-08-09T22:58:17.532Z,60.60
2018-08-09T23:00:45.375Z,59.50
2018-08-09T23:03:13.757Z,58.90
2018-08-09T23:05:41.665Z,59.40
2018-08-09T23:08:12.448Z,59.50
2018-08-09T23:10:41.051Z,59.00
2018-08-09T23:13:09.618Z,59.10
2018-08-09T23:15:37.281Z,58.60
2018-08-09T23:18:05.636Z,58.50
2018-08-09T23:20:33.344Z,58.80
2018-08-09T23:23:00.945Z,58.50
2018-08-09T23:25:28.781Z,58.50
2018-08-09T23:27:56.446Z,58.80
2018-08-09T23:30:24.111Z,58.90
2018-08-09T23:32:51.884Z,59.00
2018-08-09T23:35:19.833Z,59.00
2018-08-09T23:37:47.501Z,60.70
2018-08-09T23:40:15.143Z,61.80
2018-08-09T23:42:42.979Z,62.00
2018-08-09T23:45:10.735Z,61.90
2018-08-09T23:47:39.564Z,61.90
2018-08-09T23:50:09.157Z,61.50
2018-08-09T23:52:37.428Z,61.50
2018-08-09T23:55:05.931Z,61.10
2018-08-09T23:57:33.690Z,60.50
